Time;durP1;ratioP1;P1;durP2;ratioP2;P2;SDS_P1;SDS_P2;PMS_P1;PMS_P2;Temp;Humidity;BMP_temperature;BMP_pressure;BME280_temperature;BME280_humidity;BME280_pressure;Samples;Min_cycle;Max_cycle;Signal;HPM_P1;HPM_P2
2023/03/18 00:01:14;;;;;;;;;;;;;;;;;;5045110;28;19920;-60
2023/03/18 00:03:40;;;;;;;;;;;;;;;;;;5046279;28;20330;-60
2023/03/18 00:06:06;;;;;;;;;;;;;;;;;;5045257;28;20448;-60
2023/03/18 00:08:35;;;;;;;;;;;;;;;;;;5046117;28;20448;-60
2023/03/18 00:11:04;;;;;;;;;;;;;;;;;;5045903;28;20034;-59
2023/03/18 00:13:30;;;;;;;;;;;;;;;;;;5046360;28;20331;-60
2023/03/18 00:15:56;;;;;;;;;;;;;;;;;;5045828;28;19971;-59
2023/03/18 00:18:23;;;;;;;;;;;;;;;;;;5045212;28;19928;-59
2023/03/18 00:20:49;;;;;;;;;;;;;;;;;;5045064;28;19990;-60
2023/03/18 00:23:15;;;;;;;;;;;;;;;;;;5045733;28;19932;-60
2023/03/18 00:25:41;;;;;;;;;;;;;;;;;;5027911;28;20387;-60
2023/03/18 00:28:07;;;;;;;;;;;;;;;;;;5045406;28;19925;-59
2023/03/18 00:30:33;;;;;;;;;;;;;;;;;;5027853;28;19925;-60
2023/03/18 00:32:59;;;;;;;;;;;;;;;;;;5045735;28;20410;-60
2023/03/18 00:35:27;;;;;;;;;;;;;;;;;;5044785;28;19924;-60
2023/03/18 00:37:53;;;;;;;;;;;;;;;;;;5045267;28;19924;-59
2023/03/18 00:40:26;;;;;;;;;;;;;;;;;;5045218;28;19975;-59
2023/03/18 00:42:56;;;;;;;;;;;;;;;;;;5045384;28;19978;-59
2023/03/18 00:45:22;;;;;;;;;;;;;;;;;;5045008;28;19948;-59
2023/03/18 00:47:49;;;;;;;;;;;;;;;;;;5045153;28;19947;-59
2023/03/18 00:50:15;;;;;;;;;;;;;;;;;;5044045;28;19979;-59
2023/03/18 00:52:41;;;;;;;;;;;;;;;;;;5045149;28;20424;-58
2023/03/18 00:55:07;;;;;;;;;;;;;;;;;;5044791;28;19928;-59
2023/03/18 00:57:33;;;;;;;;;;;;;;;;;;5045252;28;19929;-58
2023/03/18 01:00:00;;;;;;;;;;;;;;;;;;5045348;28;20295;-59
2023/03/18 01:02:26;;;;;;;;;;;;;;;;;;5044834;28;19928;-59
2023/03/18 01:04:52;;;;;;;;;;;;;;;;;;5044936;28;19925;-59
2023/03/18 01:07:18;;;;;;;;;;;;;;;;;;5044031;28;19935;-59
2023/03/18 01:09:44;;;;;;;;;;;;;;;;;;5044985;28;20008;-59
2023/03/18 01:12:10;;;;;;;;;;;;;;;;;;5044450;28;20449;-59
2023/03/18 01:14:36;;;;;;;;;;;;;;;;;;5044920;28;20400;-59
2023/03/18 01:17:03;;;;;;;;;;;;;;;;;;5026087;28;19940;-59
2023/03/18 01:19:29;;;;;;;;;;;;;;;;;;5027331;28;20050;-59
2023/03/18 01:21:55;;;;;;;;;;;;;;;;;;5043719;28;19957;-58
2023/03/18 01:24:21;;;;;;;;;;;;;;;;;;5044184;28;20623;-58
2023/03/18 01:26:47;;;;;;;;;;;;;;;;;;5044894;28;20007;-59
2023/03/18 01:29:13;;;;;;;;;;;;;;;;;;5044143;28;19947;-58
2023/03/18 01:31:39;;;;;;;;;;;;;;;;;;5044560;28;19948;-59
2023/03/18 01:34:05;;;;;;;;;;;;;;;;;;5044306;28;19925;-58
2023/03/18 01:36:32;;;;;;;;;;;;;;;;;;5042955;28;19931;-58
2023/03/18 01:38:58;;;;;;;;;;;;;;;;;;5026478;28;19962;-59
2023/03/18 01:41:24;;;;;;;;;;;;;;;;;;5043929;28;19933;-58
2023/03/18 01:43:50;;;;;;;;;;;;;;;;;;5044447;28;19928;-59
2023/03/18 01:46:16;;;;;;;;;;;;;;;;;;5043327;28;19931;-59
2023/03/18 01:48:42;;;;;;;;;;;;;;;;;;5044287;28;20444;-59
2023/03/18 01:51:09;;;;;;;;;;;;;;;;;;5043016;28;19971;-59
2023/03/18 01:53:35;;;;;;;;;;;;;;;;;;5043792;28;19932;-59
2023/03/18 01:56:01;;;;;;;;;;;;;;;;;;5043813;28;19977;-58
2023/03/18 01:58:27;;;;;;;;;;;;;;;;;;5043273;28;20083;-59
2023/03/18 02:00:53;;;;;;;;;;;;;;;;;;5043986;28;20893;-59
2023/03/18 02:03:19;;;;;;;;;;;;;;;;;;5035137;28;19943;-59
2023/03/18 02:05:46;;;;;;;;;;;;;;;;;;5042927;28;19977;-59
2023/03/18 02:08:12;;;;;;;;;;;;;;;;;;5025332;28;20024;-58
2023/03/18 02:10:39;;;;;;;;;;;;;;;;;;5126848;22;19924;-60
2023/03/18 02:13:05;;;;;;;;;;;;;;;;;;5063172;28;20296;-58
2023/03/18 02:15:32;;;;;;;;;;;;;;;;;;5062819;28;19931;-58
2023/03/18 02:17:58;;;;;;;;;;;;;;;;;;5063747;28;19924;-58
2023/03/18 02:20:24;;;;;;;;;;;;;;;;;;5062756;28;19932;-59
2023/03/18 02:22:51;;;;;;;;;;;;;;;;;;5063907;28;19947;-57
2023/03/18 02:25:17;;;;;;;;;;;;;;;;;;5063330;28;19924;-59
2023/03/18 02:27:44;;;;;;;;;;;;;;;;;;5063392;28;20396;-59
2023/03/18 02:30:10;;;;;;;;;;;;;;;;;;5062716;28;20416;-59
2023/03/18 02:32:36;;;;;;;;;;;;;;;;;;5064141;28;19924;-59
2023/03/18 02:35:02;;;;;;;;;;;;;;;;;;5045073;28;19924;-59
2023/03/18 02:37:28;;;;;;;;;;;;;;;;;;5064090;28;19931;-59
2023/03/18 02:39:54;;;;;;;;;;;;;;;;;;5063913;28;20072;-59
2023/03/18 02:42:20;;;;;;;;;;;;;;;;;;5063335;28;20021;-59
2023/03/18 02:44:46;;;;;;;;;;;;;;;;;;5063736;28;19925;-59
2023/03/18 02:47:13;;;;;;;;;;;;;;;;;;5063432;28;20346;-58
2023/03/18 02:49:39;;;;;;;;;;;;;;;;;;5062731;28;20332;-59
2023/03/18 02:52:05;;;;;;;;;;;;;;;;;;5062828;28;20491;-58
2023/03/18 02:54:31;;;;;;;;;;;;;;;;;;5063937;28;20433;-57
2023/03/18 02:56:57;;;;;;;;;;;;;;;;;;5063722;28;19924;-59
2023/03/18 02:59:24;;;;;;;;;;;;;;;;;;5063162;28;19935;-59
2023/03/18 03:01:50;;;;;;;;;;;;;;;;;;5063696;28;19928;-59
2023/03/18 03:04:16;;;;;;;;;;;;;;;;;;5063242;28;20639;-60
2023/03/18 03:06:42;;;;;;;;;;;;;;;;;;5062853;28;19925;-59
2023/03/18 03:09:08;;;;;;;;;;;;;;;;;;5065078;28;19964;-59
2023/03/18 03:11:35;;;;;;;;;;;;;;;;;;5066186;28;19971;-59
2023/03/18 03:14:01;;;;;;;;;;;;;;;;;;5067508;28;19924;-52
2023/03/18 03:16:27;;;;;;;;;;;;;;;;;;5049033;28;19973;-59
2023/03/18 03:18:53;;;;;;;;;;;;;;;;;;5066955;28;19924;-59
2023/03/18 03:21:19;;;;;;;;;;;;;;;;;;5066132;28;19924;-60
2023/03/18 03:23:45;;;;;;;;;;;;;;;;;;5067008;28;19924;-60
2023/03/18 03:26:11;;;;;;;;;;;;;;;;;;5066869;28;19978;-59
2023/03/18 03:28:37;;;;;;;;;;;;;;;;;;5066919;28;19932;-59
2023/03/18 03:31:03;;;;;;;;;;;;;;;;;;5065896;28;19935;-60
2023/03/18 03:33:29;;;;;;;;;;;;;;;;;;5067026;28;20373;-60
2023/03/18 03:35:56;;;;;;;;;;;;;;;;;;5048360;28;20023;-59
2023/03/18 03:38:23;;;;;;;;;;;;;;;;;;5066472;28;20385;-60
2023/03/18 03:40:49;;;;;;;;;;;;;;;;;;5048922;28;19924;-59
2023/03/18 03:43:15;;;;;;;;;;;;;;;;;;5066363;28;20431;-59
2023/03/18 03:45:41;;;;;;;;;;;;;;;;;;5066240;28;19928;-59
2023/03/18 03:48:07;;;;;;;;;;;;;;;;;;5066549;28;19925;-60
2023/03/18 03:50:33;;;;;;;;;;;;;;;;;;5065168;28;19966;-60
2023/03/18 03:52:59;;;;;;;;;;;;;;;;;;5066932;28;19924;-60
2023/03/18 03:55:25;;;;;;;;;;;;;;;;;;5066346;28;19924;-60
2023/03/18 03:57:51;;;;;;;;;;;;;;;;;;5066185;28;19935;-60
2023/03/18 04:00:17;;;;;;;;;;;;;;;;;;5065963;28;19924;-59
2023/03/18 04:02:44;;;;;;;;;;;;;;;;;;5065929;28;20373;-59
2023/03/18 04:05:10;;;;;;;;;;;;;;;;;;5065470;28;19936;-59
2023/03/18 04:07:36;;;;;;;;;;;;;;;;;;5066312;28;20603;-60
2023/03/18 04:10:02;;;;;;;;;;;;;;;;;;5047578;28;19928;-60
2023/03/18 04:12:28;;;;;;;;;;;;;;;;;;5066168;28;19978;-60
2023/03/18 04:14:54;;;;;;;;;;;;;;;;;;5065999;28;19924;-59
2023/03/18 04:17:20;;;;;;;;;;;;;;;;;;5064761;28;20413;-59
2023/03/18 04:19:47;;;;;;;;;;;;;;;;;;5064731;28;19987;-59
2023/03/18 04:22:13;;;;;;;;;;;;;;;;;;5065685;28;19928;-60
2023/03/18 04:24:39;;;;;;;;;;;;;;;;;;5066019;28;20288;-60
2023/03/18 04:27:05;;;;;;;;;;;;;;;;;;5065363;28;19928;-59
2023/03/18 04:29:32;;;;;;;;;;;;;;;;;;5065393;28;19932;-59
2023/03/18 04:31:58;;;;;;;;;;;;;;;;;;5065441;28;19924;-60
2023/03/18 04:34:24;;;;;;;;;;;;;;;;;;5065550;28;19935;-59
2023/03/18 04:36:50;;;;;;;;;;;;;;;;;;5064421;28;20290;-59
2023/03/18 04:39:16;;;;;;;;;;;;;;;;;;5065452;28;19924;-59
2023/03/18 04:41:42;;;;;;;;;;;;;;;;;;5065459;28;19931;-58
2023/03/18 04:44:08;;;;;;;;;;;;;;;;;;5065130;28;19960;-59
2023/03/18 04:46:34;;;;;;;;;;;;;;;;;;5065780;28;20483;-59
2023/03/18 04:49:01;;;;;;;;;;;;;;;;;;5065548;28;19924;-55
2023/03/18 04:51:27;;;;;;;;;;;;;;;;;;5062277;28;19944;-61
2023/03/18 04:53:53;;;;;;;;;;;;;;;;;;5065250;28;20005;-61
2023/03/18 04:56:19;;;;;;;;;;;;;;;;;;5065336;28;19924;-61
2023/03/18 04:58:45;;;;;;;;;;;;;;;;;;5065456;28;19925;-60
2023/03/18 05:01:11;;;;;;;;;;;;;;;;;;5064638;28;19928;-61
2023/03/18 05:03:37;;;;;;;;;;;;;;;;;;5065489;28;20510;-61
2023/03/18 05:06:03;;;;;;;;;;;;;;;;;;5064152;28;20353;-58
2023/03/18 05:08:29;;;;;;;;;;;;;;;;;;5047520;28;19924;-61
2023/03/18 05:10:55;;;;;;;;;;;;;;;;;;5064269;28;19928;-60
2023/03/18 05:13:22;;;;;;;;;;;;;;;;;;5064613;28;19935;-60
2023/03/18 05:15:48;;;;;;;;;;;;;;;;;;5064747;28;19938;-61
2023/03/18 05:18:15;;;;;;;;;;;;;;;;;;5064516;28;19928;-61
2023/03/18 05:20:41;;;;;;;;;;;;;;;;;;5064173;28;20483;-62
2023/03/18 05:23:07;;;;;;;;;;;;;;;;;;5046582;28;19924;-62
2023/03/18 05:25:33;;;;;;;;;;;;;;;;;;5064650;28;19924;-62
2023/03/18 05:27:59;;;;;;;;;;;;;;;;;;5064712;28;19924;-61
2023/03/18 05:30:25;;;;;;;;;;;;;;;;;;5064106;28;20293;-61
2023/03/18 05:32:51;;;;;;;;;;;;;;;;;;5063555;28;20304;-61
2023/03/18 05:35:18;;;;;;;;;;;;;;;;;;5063543;28;19924;-62
2023/03/18 05:37:44;;;;;;;;;;;;;;;;;;5064298;28;19924;-62
2023/03/18 05:40:10;;;;;;;;;;;;;;;;;;5063823;28;20019;-62
2023/03/18 05:42:36;;;;;;;;;;;;;;;;;;5064237;28;20007;-62
2023/03/18 05:45:03;;;;;;;;;;;;;;;;;;5064354;28;19976;-62
2023/03/18 05:47:29;;;;;;;;;;;;;;;;;;5064818;28;19982;-61
2023/03/18 05:49:55;;;;;;;;;;;;;;;;;;5045226;28;19967;-60
2023/03/18 05:52:21;;;;;;;;;;;;;;;;;;5063632;28;19935;-61
2023/03/18 05:54:49;;;;;;;;;;;;;;;;;;5064710;28;19924;-61
2023/03/18 05:57:15;;;;;;;;;;;;;;;;;;5063676;28;19935;-61
2023/03/18 05:59:41;;;;;;;;;;;;;;;;;;5062453;28;19928;-61
2023/03/18 06:02:07;;;;;;;;;;;;;;;;;;5059198;28;20412;-61
2023/03/18 06:04:33;;;;;;;;;;;;;;;;;;5030134;28;19932;-61
2023/03/18 06:07:00;;;;;;;;;;;;;;;;;;5057822;28;19924;-62
2023/03/18 06:09:26;;;;;;;;;;;;;;;;;;5054290;28;19948;-61
2023/03/18 06:11:52;;;;;;;;;;;;;;;;;;5052817;28;20012;-62
2023/03/18 06:14:18;;;;;;;;;;;;;;;;;;5049808;28;20011;-61
2023/03/18 06:16:45;;;;;;;;;;;;;;;;;;5051015;28;19944;-62
2023/03/18 06:19:11;;;;;;;;;;;;;;;;;;5055971;28;19947;-60
2023/03/18 06:21:37;;;;;;;;;;;;;;;;;;5061706;28;19925;-61
2023/03/18 06:24:03;;;;;;;;;;;;;;;;;;5061450;28;19932;-61
2023/03/18 06:26:29;;;;;;;;;;;;;;;;;;5060886;28;20444;-61
2023/03/18 06:28:56;;;;;;;;;;;;;;;;;;5061221;28;19971;-61
2023/03/18 06:31:22;;;;;;;;;;;;;;;;;;5059430;28;20042;-62
2023/03/18 06:33:48;;;;;;;;;;;;;;;;;;5057318;28;19937;-61
2023/03/18 06:36:15;;;;;;;;;;;;;;;;;;5056599;28;20533;-62
2023/03/18 06:38:41;;;;;;;;;;;;;;;;;;5052940;28;19935;-61
2023/03/18 06:41:07;;;;;;;;;;;;;;;;;;5054858;28;19924;-61
2023/03/18 06:43:33;;;;;;;;;;;;;;;;;;5050470;28;19925;-62
2023/03/18 06:45:59;;;;;;;;;;;;;;;;;;5056468;28;19933;-61
2023/03/18 06:48:25;;;;;;;;;;;;;;;;;;5050346;28;20006;-64
2023/03/18 06:50:53;;;;;;;;;;;;;;;;;;5050564;28;19928;-61
2023/03/18 06:53:19;;;;;;;;;;;;;;;;;;5048997;28;19928;-62
2023/03/18 06:55:45;;;;;;;;;;;;;;;;;;5055894;28;20274;-61
2023/03/18 06:58:11;;;;;;;;;;;;;;;;;;5056655;28;19928;-61
2023/03/18 07:00:40;;;;;;;;;;;;;;;;;;5065074;28;19932;-62
2023/03/18 07:03:06;;;;;;;;;;;;;;;;;;5062658;28;20011;-61
2023/03/18 07:05:32;;;;;;;;;;;;;;;;;;5052335;28;19932;-61
2023/03/18 07:07:58;;;;;;;;;;;;;;;;;;5050929;28;19924;-62
2023/03/18 07:10:24;;;;;;;;;;;;;;;;;;5048868;28;19929;-62
2023/03/18 07:12:51;;;;;;;;;;;;;;;;;;5058334;28;20453;-61
2023/03/18 07:15:19;;;;;;;;;;;;;;;;;;5063229;28;19920;-61
2023/03/18 07:17:45;;;;;;;;;;;;;;;;;;5057597;28;19935;-61
2023/03/18 07:20:11;;;;;;;;;;;;;;;;;;5066117;28;19924;-61
2023/03/18 07:22:38;;;;;;;;;;;;;;;;;;5059054;28;19947;-62
2023/03/18 07:25:04;;;;;;;;;;;;;;;;;;5038579;28;19929;-56
2023/03/18 07:27:30;;;;;;;;;;;;;;;;;;5056245;28;20146;-60
2023/03/18 07:29:56;;;;;;;;;;;;;;;;;;5051465;28;19928;-60
2023/03/18 07:32:22;;;;;;;;;;;;;;;;;;5064101;28;19939;-59
2023/03/18 07:34:48;;;;;;;;;;;;;;;;;;5049798;28;19924;-60
2023/03/18 07:37:14;;;;;;;;;;;;;;;;;;5062380;28;19935;-61
2023/03/18 07:39:42;;;;;;;;;;;;;;;;;;5059895;28;19928;-61
2023/03/18 07:42:08;;;;;;;;;;;;;;;;;;5056014;28;19986;-60
2023/03/18 07:44:35;;;;;;;;;;;;;;;;;;5051978;28;20015;-60
2023/03/18 07:47:02;;;;;;;;;;;;;;;;;;5060791;28;19947;-60
2023/03/18 07:49:28;;;;;;;;;;;;;;;;;;5063476;28;19925;-60
2023/03/18 07:51:55;;;;;;;;;;;;;;;;;;5059241;28;20012;-58
2023/03/18 07:54:21;;;;;;;;;;;;;;;;;;5053297;28;20451;-60
2023/03/18 07:56:47;;;;;;;;;;;;;;;;;;5057441;28;20019;-59
2023/03/18 07:59:14;;;;;;;;;;;;;;;;;;5051909;28;19925;-60
2023/03/18 08:01:40;;;;;;;;;;;;;;;;;;5062283;28;19931;-61
2023/03/18 08:04:06;;;;;;;;;;;;;;;;;;5062741;28;20715;-59
2023/03/18 08:06:33;;;;;;;;;;;;;;;;;;5059626;28;20374;-59
2023/03/18 08:08:59;;;;;;;;;;;;;;;;;;5064241;28;19924;-59
2023/03/18 08:11:25;;;;;;;;;;;;;;;;;;5062927;28;20014;-60
2023/03/18 08:13:51;;;;;;;;;;;;;;;;;;5063627;28;20379;-59
2023/03/18 08:16:18;;;;;;;;;;;;;;;;;;5064426;28;20743;-59
2023/03/18 08:18:44;;;;;;;;;;;;;;;;;;5063556;28;19964;-59
2023/03/18 08:21:10;;;;;;;;;;;;;;;;;;5064345;28;19924;-58
2023/03/18 08:23:36;;;;;;;;;;;;;;;;;;5046027;28;19932;-59
2023/03/18 08:26:02;;;;;;;;;;;;;;;;;;5063987;28;19931;-59
2023/03/18 08:28:28;;;;;;;;;;;;;;;;;;5064117;28;20331;-59
2023/03/18 08:30:54;;;;;;;;;;;;;;;;;;5061184;28;20373;-59
2023/03/18 08:33:21;;;;;;;;;;;;;;;;;;5060478;28;21021;-59
2023/03/18 08:35:47;;;;;;;;;;;;;;;;;;5064401;28;19935;-59
2023/03/18 08:38:13;;;;;;;;;;;;;;;;;;5059929;28;19925;-59
2023/03/18 08:40:40;;;;;;;;;;;;;;;;;;5062192;28;20297;-59
2023/03/18 08:43:06;;;;;;;;;;;;;;;;;;5060652;28;19928;-60
2023/03/18 08:45:32;;;;;;;;;;;;;;;;;;5061106;28;19936;-59
2023/03/18 08:47:59;;;;;;;;;;;;;;;;;;5064801;28;19931;-61
2023/03/18 08:50:27;;;;;;;;;;;;;;;;;;5059538;28;19933;-60
2023/03/18 08:52:53;;;;;;;;;;;;;;;;;;5064827;28;19924;-60
2023/03/18 08:55:20;;;;;;;;;;;;;;;;;;5060239;28;19931;-60
2023/03/18 08:57:46;;;;;;;;;;;;;;;;;;5061906;28;19968;-61
2023/03/18 09:00:12;;;;;;;;;;;;;;;;;;5063002;28;20003;-60
2023/03/18 09:02:38;;;;;;;;;;;;;;;;;;5061280;28;20023;-60
2023/03/18 09:05:04;;;;;;;;;;;;;;;;;;5061065;28;19925;-59
2023/03/18 09:07:30;;;;;;;;;;;;;;;;;;5060280;28;20720;-61
2023/03/18 09:09:56;;;;;;;;;;;;;;;;;;5059365;28;19937;-60
2023/03/18 09:12:23;;;;;;;;;;;;;;;;;;5061132;28;19932;-60
2023/03/18 09:14:51;;;;;;;;;;;;;;;;;;5054908;28;22300;-60
2023/03/18 09:17:17;;;;;;;;;;;;;;;;;;5059538;28;20433;-60
2023/03/18 09:19:43;;;;;;;;;;;;;;;;;;5056487;28;20023;-60
2023/03/18 09:22:10;;;;;;;;;;;;;;;;;;5061271;28;19924;-60
2023/03/18 09:24:36;;;;;;;;;;;;;;;;;;5061407;28;20058;-59
2023/03/18 09:27:02;;;;;;;;;;;;;;;;;;5058951;28;20014;-59
2023/03/18 09:29:28;;;;;;;;;;;;;;;;;;5059152;28;19928;-59
2023/03/18 09:31:54;;;;;;;;;;;;;;;;;;5059640;28;19935;-59
2023/03/18 09:34:20;;;;;;;;;;;;;;;;;;5058345;28;19947;-59
2023/03/18 09:36:49;;;;;;;;;;;;;;;;;;5058675;28;20602;-59
2023/03/18 09:39:16;;;;;;;;;;;;;;;;;;5060996;28;20341;-59
2023/03/18 09:41:42;;;;;;;;;;;;;;;;;;5060988;28;20035;-60
2023/03/18 09:44:08;;;;;;;;;;;;;;;;;;5057803;28;19935;-61
2023/03/18 09:46:34;;;;;;;;;;;;;;;;;;5058844;28;19936;-60
2023/03/18 09:49:00;;;;;;;;;;;;;;;;;;5057775;28;19929;-59
2023/03/18 09:51:27;;;;;;;;;;;;;;;;;;5058637;28;20637;-60
2023/03/18 09:53:53;;;;;;;;;;;;;;;;;;5057687;28;20412;-60
2023/03/18 09:56:19;;;;;;;;;;;;;;;;;;5058680;28;19928;-60
2023/03/18 09:58:45;;;;;;;;;;;;;;;;;;5060619;28;19931;-60
2023/03/18 10:01:12;;;;;;;;;;;;;;;;;;5058275;28;19928;-60
2023/03/18 10:03:38;;;;;;;;;;;;;;;;;;5058958;28;19950;-59
2023/03/18 10:06:04;;;;;;;;;;;;;;;;;;5055373;28;20498;-59
2023/03/18 10:08:30;;;;;;;;;;;;;;;;;;5060142;28;20497;-60
2023/03/18 10:10:56;;;;;;;;;;;;;;;;;;5059881;28;20301;-60
2023/03/18 10:13:22;;;;;;;;;;;;;;;;;;5057770;28;19947;-60
2023/03/18 10:15:48;;;;;;;;;;;;;;;;;;5059637;28;19940;-59
2023/03/18 10:18:15;;;;;;;;;;;;;;;;;;5059804;28;19937;-59
2023/03/18 10:20:41;;;;;;;;;;;;;;;;;;5060608;28;19925;-60
2023/03/18 10:23:08;;;;;;;;;;;;;;;;;;5061104;28;19927;-59
2023/03/18 10:25:34;;;;;;;;;;;;;;;;;;5060770;28;19925;-60
2023/03/18 10:28:00;;;;;;;;;;;;;;;;;;5060927;28;19932;-60
2023/03/18 10:30:26;;;;;;;;;;;;;;;;;;5060495;28;19932;-60
2023/03/18 10:32:52;;;;;;;;;;;;;;;;;;5061346;28;19947;-59
2023/03/18 10:35:18;;;;;;;;;;;;;;;;;;5060108;28;20390;-60
2023/03/18 10:37:44;;;;;;;;;;;;;;;;;;5060894;28;19928;-60
2023/03/18 10:40:10;;;;;;;;;;;;;;;;;;5060656;28;20043;-60
2023/03/18 10:42:36;;;;;;;;;;;;;;;;;;5055467;28;19928;-60
2023/03/18 10:45:02;;;;;;;;;;;;;;;;;;5059596;28;19925;-60
2023/03/18 10:47:28;;;;;;;;;;;;;;;;;;5061008;28;19928;-60
2023/03/18 10:49:56;;;;;;;;;;;;;;;;;;5059984;28;20511;-59
2023/03/18 10:52:22;;;;;;;;;;;;;;;;;;5060691;28;19925;-59
2023/03/18 10:54:51;;;;;;;;;;;;;;;;;;5060317;28;19928;-60
2023/03/18 10:57:17;;;;;;;;;;;;;;;;;;5057116;28;19929;-60
2023/03/18 10:59:44;;;;;;;;;;;;;;;;;;5061006;28;20306;-61
2023/03/18 11:02:10;;;;;;;;;;;;;;;;;;5060724;28;19924;-60
2023/03/18 11:04:36;;;;;;;;;;;;;;;;;;5060125;28;19924;-60
2023/03/18 11:07:02;;;;;;;;;;;;;;;;;;5060160;28;19978;-60
2023/03/18 11:09:28;;;;;;;;;;;;;;;;;;5042663;28;20011;-61
2023/03/18 11:11:54;;;;;;;;;;;;;;;;;;5060058;28;19925;-60
2023/03/18 11:14:21;;;;;;;;;;;;;;;;;;5057383;28;19928;-61
2023/03/18 11:16:49;;;;;;;;;;;;;;;;;;5060964;28;20650;-62
2023/03/18 11:19:15;;;;;;;;;;;;;;;;;;5060219;28;19968;-62
2023/03/18 11:21:41;;;;;;;;;;;;;;;;;;5061529;28;19928;-61
2023/03/18 11:24:09;;;;;;;;;;;;;;;;;;5062460;28;19931;-61
2023/03/18 11:26:35;;;;;;;;;;;;;;;;;;5059074;28;19986;-61
2023/03/18 11:29:01;;;;;;;;;;;;;;;;;;5061669;28;19929;-60
2023/03/18 11:31:27;;;;;;;;;;;;;;;;;;5060892;28;19932;-62
2023/03/18 11:33:53;;;;;;;;;;;;;;;;;;5030518;28;19928;-61
2023/03/18 11:36:20;;;;;;;;;;;;;;;;;;5061459;28;20015;-60
2023/03/18 11:38:46;;;;;;;;;;;;;;;;;;5058085;28;20384;-61
2023/03/18 11:41:12;;;;;;;;;;;;;;;;;;5061275;28;19924;-61
2023/03/18 11:43:38;;;;;;;;;;;;;;;;;;5061066;28;19929;-61
2023/03/18 11:46:04;;;;;;;;;;;;;;;;;;5050151;28;19967;-62
2023/03/18 11:48:30;;;;;;;;;;;;;;;;;;5053391;28;19929;-61
2023/03/18 11:50:56;;;;;;;;;;;;;;;;;;5062476;28;19939;-60
2023/03/18 11:53:22;;;;;;;;;;;;;;;;;;5062906;28;19929;-60
2023/03/18 11:55:48;;;;;;;;;;;;;;;;;;5063233;28;19925;-60
2023/03/18 11:58:15;;;;;;;;;;;;;;;;;;5062035;28;19935;-62
2023/03/18 12:00:42;;;;;;;;;;;;;;;;;;5060991;28;19928;-63
2023/03/18 12:03:08;;;;;;;;;;;;;;;;;;5061997;28;19925;-62
2023/03/18 12:05:34;;;;;;;;;;;;;;;;;;5060441;28;19932;-63
2023/03/18 12:08:00;;;;;;;;;;;;;;;;;;5062059;28;19928;-62
2023/03/18 12:10:27;;;;;;;;;;;;;;;;;;5061769;28;19929;-62
2023/03/18 12:12:53;;;;;;;;;;;;;;;;;;5060683;28;19928;-62
2023/03/18 12:15:20;;;;;;;;;;;;;;;;;;5062264;28;20400;-63
2023/03/18 12:17:48;;;;;;;;;;;;;;;;;;5057069;28;19933;-63
2023/03/18 12:20:15;;;;;;;;;;;;;;;;;;5061537;28;20045;-62
2023/03/18 12:22:41;;;;;;;;;;;;;;;;;;5061476;28;19993;-63
2023/03/18 12:25:07;;;;;;;;;;;;;;;;;;5061325;28;19944;-63
2023/03/18 12:27:33;;;;;;;;;;;;;;;;;;5064330;28;19998;-63
2023/03/18 12:29:59;;;;;;;;;;;;;;;;;;5057839;28;19948;-63
2023/03/18 12:32:26;;;;;;;;;;;;;;;;;;5057588;28;20183;-63
2023/03/18 12:34:52;;;;;;;;;;;;;;;;;;5054470;28;19951;-64
2023/03/18 12:37:18;;;;;;;;;;;;;;;;;;5057694;28;19936;-63
2023/03/18 12:39:44;;;;;;;;;;;;;;;;;;5053574;28;19928;-63
2023/03/18 12:42:12;;;;;;;;;;;;;;;;;;5052286;28;19931;-64
2023/03/18 12:44:38;;;;;;;;;;;;;;;;;;5053601;28;19933;-63
2023/03/18 12:47:05;;;;;;;;;;;;;;;;;;5060677;28;19935;-62
2023/03/18 12:49:31;;;;;;;;;;;;;;;;;;5061792;28;20036;-62
2023/03/18 12:51:57;;;;;;;;;;;;;;;;;;5063293;28;20298;-62
2023/03/18 12:54:24;;;;;;;;;;;;;;;;;;5035978;28;19994;-62
2023/03/18 12:56:51;;;;;;;;;;;;;;;;;;5048514;28;20015;-62
2023/03/18 12:59:17;;;;;;;;;;;;;;;;;;5059456;28;19928;-62
2023/03/18 13:01:46;;;;;;;;;;;;;;;;;;5052723;28;20296;-62
2023/03/18 13:04:12;;;;;;;;;;;;;;;;;;5059349;28;19982;-61
2023/03/18 13:06:39;;;;;;;;;;;;;;;;;;5051081;28;20074;-61
2023/03/18 13:09:05;;;;;;;;;;;;;;;;;;5054474;28;20455;-61
2023/03/18 13:11:31;;;;;;;;;;;;;;;;;;5048355;28;20418;-63
2023/03/18 13:13:59;;;;;;;;;;;;;;;;;;5058747;28;19939;-62
2023/03/18 13:16:25;;;;;;;;;;;;;;;;;;5053415;28;20389;-63
2023/03/18 13:18:51;;;;;;;;;;;;;;;;;;5050598;28;19977;-62
2023/03/18 13:21:17;;;;;;;;;;;;;;;;;;5062828;28;19925;-62
2023/03/18 13:23:43;;;;;;;;;;;;;;;;;;5062925;28;19926;-62
2023/03/18 13:26:09;;;;;;;;;;;;;;;;;;5060988;28;20009;-64
2023/03/18 13:28:35;;;;;;;;;;;;;;;;;;5059152;28;19928;-66
2023/03/18 13:31:02;;;;;;;;;;;;;;;;;;5060956;28;19928;-63
2023/03/18 13:33:28;;;;;;;;;;;;;;;;;;5050273;28;19929;-67
2023/03/18 13:35:54;;;;;;;;;;;;;;;;;;5057472;28;19932;-66
2023/03/18 13:38:20;;;;;;;;;;;;;;;;;;5060623;28;19924;-65
2023/03/18 13:40:46;;;;;;;;;;;;;;;;;;5053662;28;20370;-67
2023/03/18 13:43:12;;;;;;;;;;;;;;;;;;5059220;28;20646;-66
2023/03/18 13:45:38;;;;;;;;;;;;;;;;;;5060849;28;20393;-65
2023/03/18 13:48:04;;;;;;;;;;;;;;;;;;5058716;28;19928;-66
2023/03/18 13:50:31;;;;;;;;;;;;;;;;;;5038397;28;19929;-65
2023/03/18 13:52:57;;;;;;;;;;;;;;;;;;5058052;28;19973;-64
2023/03/18 13:55:23;;;;;;;;;;;;;;;;;;5059025;28;19928;-65
2023/03/18 13:57:49;;;;;;;;;;;;;;;;;;5059964;28;20386;-65
2023/03/18 14:00:15;;;;;;;;;;;;;;;;;;5057875;28;19935;-66
2023/03/18 14:02:44;;;;;;;;;;;;;;;;;;5058100;28;20322;-62
2023/03/18 14:05:10;;;;;;;;;;;;;;;;;;5055021;28;19974;-66
2023/03/18 14:07:36;;;;;;;;;;;;;;;;;;5059667;28;19989;-64
2023/03/18 14:10:03;;;;;;;;;;;;;;;;;;5058956;28;19964;-63
2023/03/18 14:12:30;;;;;;;;;;;;;;;;;;5059333;28;19924;-66
2023/03/18 14:14:56;;;;;;;;;;;;;;;;;;5060393;28;20382;-64
2023/03/18 14:17:23;;;;;;;;;;;;;;;;;;5057505;28;19983;-65
2023/03/18 14:19:49;;;;;;;;;;;;;;;;;;5058766;28;19985;-63
2023/03/18 14:22:16;;;;;;;;;;;;;;;;;;5041520;28;19928;-64
2023/03/18 14:24:43;;;;;;;;;;;;;;;;;;5058835;28;19971;-63
2023/03/18 14:27:10;;;;;;;;;;;;;;;;;;5057764;28;19925;-64
2023/03/18 14:29:36;;;;;;;;;;;;;;;;;;5055934;28;19983;-64
2023/03/18 14:32:07;;;;;;;;;;;;;;;;;;5055719;28;19990;-64
2023/03/18 14:34:33;;;;;;;;;;;;;;;;;;5057101;28;19924;-64
2023/03/18 14:36:59;;;;;;;;;;;;;;;;;;5058963;28;19928;-66
2023/03/18 14:39:26;;;;;;;;;;;;;;;;;;5064646;28;20015;-63
2023/03/18 14:41:53;;;;;;;;;;;;;;;;;;5061120;28;20011;-64
2023/03/18 14:44:20;;;;;;;;;;;;;;;;;;5061917;28;19944;-63
2023/03/18 14:46:46;;;;;;;;;;;;;;;;;;5062338;28;19999;-64
2023/03/18 14:49:13;;;;;;;;;;;;;;;;;;5060302;28;19924;-63
2023/03/18 14:51:39;;;;;;;;;;;;;;;;;;5062224;28;19928;-64
2023/03/18 14:54:05;;;;;;;;;;;;;;;;;;5042537;28;19938;-64
2023/03/18 14:56:31;;;;;;;;;;;;;;;;;;5061863;28;20344;-60
2023/03/18 14:58:57;;;;;;;;;;;;;;;;;;5061700;28;20007;-64
2023/03/18 15:01:23;;;;;;;;;;;;;;;;;;5061936;28;19929;-65
2023/03/18 15:03:50;;;;;;;;;;;;;;;;;;5061332;28;20350;-63
2023/03/18 15:06:16;;;;;;;;;;;;;;;;;;5064454;28;19939;-63
2023/03/18 15:08:42;;;;;;;;;;;;;;;;;;5057505;28;19971;-64
2023/03/18 15:11:09;;;;;;;;;;;;;;;;;;5064743;28;19982;-66
2023/03/18 15:13:35;;;;;;;;;;;;;;;;;;5065474;28;20381;-65
2023/03/18 15:16:01;;;;;;;;;;;;;;;;;;5065083;28;19935;-63
2023/03/18 15:18:28;;;;;;;;;;;;;;;;;;5064453;28;20338;-64
2023/03/18 15:20:54;;;;;;;;;;;;;;;;;;5065618;28;19976;-65
2023/03/18 15:23:21;;;;;;;;;;;;;;;;;;5065361;28;20411;-67
2023/03/18 15:25:47;;;;;;;;;;;;;;;;;;5066014;28;20305;-64
2023/03/18 15:28:13;;;;;;;;;;;;;;;;;;5046625;28;19931;-64
2023/03/18 15:30:39;;;;;;;;;;;;;;;;;;5065065;28;19979;-65
2023/03/18 15:33:05;;;;;;;;;;;;;;;;;;5064050;28;19931;-63
2023/03/18 15:35:31;;;;;;;;;;;;;;;;;;5062982;28;19928;-62
2023/03/18 15:37:58;;;;;;;;;;;;;;;;;;5065380;28;19930;-64
2023/03/18 15:40:25;;;;;;;;;;;;;;;;;;5064300;28;20428;-66
2023/03/18 15:42:51;;;;;;;;;;;;;;;;;;5064502;28;20412;-65
2023/03/18 15:45:17;;;;;;;;;;;;;;;;;;5064536;28;19930;-64
2023/03/18 15:47:43;;;;;;;;;;;;;;;;;;5064809;28;19924;-66
2023/03/18 15:50:09;;;;;;;;;;;;;;;;;;5063949;28;19951;-64
2023/03/18 15:52:35;;;;;;;;;;;;;;;;;;5063416;28;19952;-64
2023/03/18 15:55:02;;;;;;;;;;;;;;;;;;5064236;28;20378;-60
2023/03/18 15:57:29;;;;;;;;;;;;;;;;;;5065013;28;19978;-65
2023/03/18 15:59:55;;;;;;;;;;;;;;;;;;5064314;28;20052;-62
2023/03/18 16:02:21;;;;;;;;;;;;;;;;;;5063918;28;20043;-65
2023/03/18 16:04:47;;;;;;;;;;;;;;;;;;5064019;28;20456;-65
2023/03/18 16:07:15;;;;;;;;;;;;;;;;;;5062610;28;19944;-64
2023/03/18 16:09:41;;;;;;;;;;;;;;;;;;5063300;28;20348;-66
2023/03/18 16:12:07;;;;;;;;;;;;;;;;;;5063165;28;20369;-65
2023/03/18 16:14:33;;;;;;;;;;;;;;;;;;5064360;28;19933;-64
2023/03/18 16:16:59;;;;;;;;;;;;;;;;;;5063632;28;19931;-64
2023/03/18 16:19:27;;;;;;;;;;;;;;;;;;5062976;28;19924;-66
2023/03/18 16:21:53;;;;;;;;;;;;;;;;;;5064048;28;19929;-65
2023/03/18 16:24:19;;;;;;;;;;;;;;;;;;5062054;28;20360;-64
2023/03/18 16:26:45;;;;;;;;;;;;;;;;;;5063893;28;20476;-65
2023/03/18 16:29:12;;;;;;;;;;;;;;;;;;5063598;28;19950;-65
2023/03/18 16:31:38;;;;;;;;;;;;;;;;;;5063212;28;19977;-66
2023/03/18 16:34:04;;;;;;;;;;;;;;;;;;5062829;28;19932;-64
2023/03/18 16:36:30;;;;;;;;;;;;;;;;;;5064271;28;19929;-67
2023/03/18 16:38:57;;;;;;;;;;;;;;;;;;5062572;28;20007;-66